createdAt,value
2019-05-18T00:00:26.787Z,19.93
2019-05-18T00:01:13.132Z,19.60
2019-05-18T00:01:59.468Z,18.57
2019-05-18T00:02:45.614Z,20.80
2019-05-18T00:03:31.617Z,23.30
2019-05-18T00:04:17.980Z,19.10
2019-05-18T00:05:04.716Z,21.07
2019-05-18T00:05:50.664Z,18.70
2019-05-18T00:06:37.666Z,18.57
2019-05-18T00:07:23.944Z,19.17
2019-05-18T00:08:10.347Z,19.00
2019-05-18T00:08:56.584Z,21.03
2019-05-18T00:09:42.946Z,21.07
2019-05-18T00:10:29.790Z,26.65
2019-05-18T00:11:16.011Z,21.27
2019-05-18T00:12:02.407Z,17.37
2019-05-18T00:12:49.249Z,20.03
2019-05-18T00:13:35.701Z,21.05
2019-05-18T00:14:21.816Z,17.83
2019-05-18T00:15:09.506Z,18.40
2019-05-18T00:15:55.409Z,18.17
2019-05-18T00:16:43.888Z,17.67
2019-05-18T00:17:30.964Z,18.10
2019-05-18T00:18:16.928Z,22.43
2019-05-18T00:19:03.125Z,17.82
2019-05-18T00:19:49.492Z,19.10
2019-05-18T00:20:35.760Z,20.05
2019-05-18T00:21:21.982Z,18.83
2019-05-18T00:22:08.228Z,19.20
2019-05-18T00:22:54.534Z,17.60
2019-05-18T00:23:41.039Z,18.95
2019-05-18T00:24:27.496Z,20.92
2019-05-18T00:25:13.828Z,24.67
2019-05-18T00:26:00.179Z,19.53
2019-05-18T00:26:46.318Z,22.55
2019-05-18T00:27:32.856Z,18.57
2019-05-18T00:28:19.817Z,20.57
2019-05-18T00:29:06.221Z,17.23
2019-05-18T00:29:52.492Z,18.73
2019-05-18T00:30:39.043Z,23.63
2019-05-18T00:31:26.015Z,24.20
2019-05-18T00:32:12.826Z,27.13
2019-05-18T00:32:59.459Z,26.57
2019-05-18T00:33:46.805Z,18.98
2019-05-18T00:34:32.919Z,27.60
2019-05-18T00:35:19.082Z,23.47
2019-05-18T00:36:05.575Z,23.33
2019-05-18T00:36:53.451Z,21.10
2019-05-18T00:37:39.958Z,20.20
2019-05-18T00:38:26.063Z,24.57
2019-05-18T00:39:12.621Z,22.95
2019-05-18T00:39:58.994Z,21.47
2019-05-18T00:40:45.059Z,20.15
2019-05-18T00:41:31.270Z,20.08
2019-05-18T00:42:20.346Z,23.52
2019-05-18T00:43:06.897Z,22.27
2019-05-18T00:43:53.620Z,18.35
2019-05-18T00:44:39.883Z,19.07
2019-05-18T00:45:26.173Z,22.13
2019-05-18T00:46:12.601Z,18.15
2019-05-18T00:47:00.076Z,17.55
2019-05-18T00:47:46.420Z,18.83
2019-05-18T00:48:32.386Z,20.88
2019-05-18T00:49:18.511Z,17.52
2019-05-18T00:50:05.355Z,19.93
2019-05-18T00:50:51.390Z,21.52
2019-05-18T00:51:37.632Z,17.80
2019-05-18T00:52:24.269Z,21.95
2019-05-18T00:53:10.585Z,18.92
2019-05-18T00:53:56.904Z,22.07
2019-05-18T00:54:43.295Z,16.13
2019-05-18T00:55:29.259Z,18.10
2019-05-18T00:56:15.787Z,21.97
2019-05-18T00:57:02.134Z,21.45
2019-05-18T00:57:48.137Z,18.32
2019-05-18T00:58:34.175Z,21.37
2019-05-18T00:59:20.901Z,25.95
2019-05-18T01:00:07.533Z,22.48
2019-05-18T01:00:54.094Z,19.95
2019-05-18T01:01:40.144Z,18.25
2019-05-18T01:02:26.291Z,19.10
2019-05-18T01:03:12.407Z,18.35
2019-05-18T01:03:59.139Z,21.68
2019-05-18T01:04:45.731Z,20.10
2019-05-18T01:05:32.279Z,19.90
2019-05-18T01:06:18.986Z,17.92
2019-05-18T01:07:04.965Z,22.00
2019-05-18T01:07:51.487Z,21.15
2019-05-18T01:08:38.134Z,19.15
2019-05-18T01:09:24.941Z,19.02
2019-05-18T01:10:12.741Z,17.07
2019-05-18T01:10:59.304Z,17.42
2019-05-18T01:11:48.037Z,18.15
2019-05-18T01:12:34.276Z,17.27
2019-05-18T01:13:20.379Z,18.80
2019-05-18T01:14:06.928Z,19.53
2019-05-18T01:14:53.002Z,18.00
2019-05-18T01:15:39.750Z,16.97
2019-05-18T01:16:25.970Z,17.77
2019-05-18T01:17:12.472Z,20.93
2019-05-18T01:18:02.055Z,16.65
2019-05-18T01:18:47.026Z,17.90
2019-05-18T01:19:33.271Z,17.87
2019-05-18T01:20:19.880Z,18.15
2019-05-18T01:21:18.721Z,18.10
2019-05-18T01:22:18.490Z,17.80
2019-05-18T01:23:05.323Z,17.15
2019-05-18T01:23:51.196Z,19.02
2019-05-18T01:24:37.750Z,19.48
2019-05-18T01:25:23.546Z,18.65
2019-05-18T01:26:09.283Z,19.50
2019-05-18T01:26:55.239Z,16.60
2019-05-18T01:27:41.290Z,20.15
2019-05-18T01:28:27.688Z,19.40
2019-05-18T01:29:14.356Z,18.95
2019-05-18T01:30:00.399Z,19.52
2019-05-18T01:30:46.085Z,21.90
2019-05-18T01:31:32.220Z,18.12
2019-05-18T01:32:21.042Z,18.50
2019-05-18T01:33:10.349Z,22.77
2019-05-18T01:33:56.712Z,19.48
2019-05-18T01:34:46.284Z,19.85
2019-05-18T01:35:32.096Z,16.95
2019-05-18T01:36:17.830Z,18.25
2019-05-18T01:37:04.106Z,21.57
2019-05-18T01:37:49.991Z,14.87
2019-05-18T01:38:36.328Z,18.07
2019-05-18T01:39:22.954Z,16.07
2019-05-18T01:40:10.601Z,16.17
2019-05-18T01:40:56.747Z,17.00
2019-05-18T01:41:43.127Z,17.02
2019-05-18T01:46:13.186Z,15.25
2019-05-18T01:46:59.389Z,16.48
2019-05-18T01:49:48.801Z,14.23
2019-05-18T01:50:35.022Z,13.90
2019-05-18T01:51:21.462Z,15.08
2019-05-18T01:52:07.525Z,14.10
2019-05-18T01:52:56.809Z,15.58
2019-05-18T01:53:42.815Z,16.53
2019-05-18T01:54:29.102Z,16.10
2019-05-18T01:55:15.211Z,16.27
2019-05-18T02:00:21.959Z,12.00
2019-05-18T02:01:07.956Z,12.47
2019-05-18T02:01:53.693Z,14.05
2019-05-18T02:02:42.290Z,13.77
2019-05-18T02:03:28.431Z,13.60
2019-05-18T02:04:14.315Z,14.93
2019-05-18T02:05:00.363Z,13.90
2019-05-18T02:05:46.448Z,15.30
2019-05-18T02:06:32.614Z,16.83
2019-05-18T02:07:18.786Z,15.97
2019-05-18T02:08:05.476Z,13.53
2019-05-18T02:08:51.548Z,12.37
2019-05-18T02:09:37.598Z,13.33
2019-05-18T02:10:23.788Z,13.65
2019-05-18T02:11:09.838Z,13.67
2019-05-18T02:11:56.048Z,12.60
2019-05-18T02:12:42.198Z,11.57
2019-05-18T02:13:28.312Z,12.87
2019-05-18T02:14:14.251Z,13.77
2019-05-18T02:15:00.413Z,12.77
2019-05-18T02:15:46.128Z,13.00
2019-05-18T02:16:32.288Z,13.53
2019-05-18T02:17:18.541Z,14.60
2019-05-18T02:18:05.025Z,15.80
2019-05-18T02:18:50.880Z,15.33
2019-05-18T02:19:37.199Z,15.40
2019-05-18T02:20:23.601Z,14.15
2019-05-18T02:21:09.480Z,14.60
2019-05-18T02:21:55.807Z,14.57
2019-05-18T02:22:41.947Z,15.93
2019-05-18T02:23:28.110Z,13.83
2019-05-18T02:24:13.895Z,14.87
2019-05-18T02:25:00.308Z,14.83
2019-05-18T02:25:46.568Z,13.57
2019-05-18T02:26:32.940Z,14.50
2019-05-18T02:27:19.251Z,15.55
2019-05-18T02:28:08.154Z,14.95
2019-05-18T02:28:54.315Z,15.10
2019-05-18T02:29:40.624Z,14.27
2019-05-18T02:30:26.777Z,15.40
2019-05-18T02:31:12.631Z,14.83
2019-05-18T02:31:58.387Z,13.83
2019-05-18T02:32:44.576Z,14.90
2019-05-18T02:33:30.296Z,15.60
2019-05-18T02:34:18.771Z,13.73
2019-05-18T02:35:04.936Z,12.90
2019-05-18T02:35:50.844Z,15.20
2019-05-18T02:36:36.735Z,14.97
2019-05-18T02:37:22.858Z,12.33
2019-05-18T02:38:15.479Z,13.67
2019-05-18T02:39:01.324Z,12.83
2019-05-18T02:39:50.415Z,13.30
2019-05-18T02:40:36.514Z,12.43
2019-05-18T02:41:22.340Z,14.47
2019-05-18T02:42:08.803Z,13.33
2019-05-18T02:42:54.776Z,13.53
2019-05-18T02:43:40.976Z,13.10
2019-05-18T02:44:27.170Z,14.23
2019-05-18T02:45:12.864Z,12.37
2019-05-18T02:45:59.093Z,12.80
2019-05-18T02:46:45.341Z,13.67
2019-05-18T02:47:31.429Z,14.10
2019-05-18T02:48:20.623Z,13.30
2019-05-18T02:49:06.282Z,12.63
2019-05-18T02:49:52.496Z,13.70
2019-05-18T02:50:38.668Z,14.03
2019-05-18T02:51:24.825Z,14.33
2019-05-18T02:52:11.021Z,12.77
2019-05-18T02:52:57.176Z,11.97
2019-05-18T02:53:42.759Z,12.30
2019-05-18T02:54:28.454Z,12.53
2019-05-18T02:55:17.129Z,12.63
2019-05-18T02:56:03.304Z,12.53
2019-05-18T02:56:49.495Z,12.27
2019-05-18T02:57:35.246Z,14.30
2019-05-18T02:58:21.488Z,12.83
2019-05-18T02:59:07.224Z,12.77
2019-05-18T02:59:56.078Z,13.40
2019-05-18T03:00:42.219Z,12.10
2019-05-18T03:01:28.435Z,12.43
2019-05-18T03:02:14.273Z,12.70
2019-05-18T03:02:59.933Z,13.57
2019-05-18T03:03:46.262Z,13.47
2019-05-18T03:04:32.571Z,12.07
2019-05-18T03:05:18.727Z,12.23
2019-05-18T03:06:05.048Z,14.37
2019-05-18T03:06:51.048Z,13.78
2019-05-18T03:07:37.262Z,12.50
2019-05-18T03:08:23.478Z,13.33
2019-05-18T03:09:09.327Z,13.30
2019-05-18T03:09:55.603Z,13.67
2019-05-18T03:10:41.968Z,12.70
2019-05-18T03:11:27.966Z,12.53
2019-05-18T03:12:13.893Z,11.78
2019-05-18T03:12:59.860Z,13.47
2019-05-18T03:13:45.799Z,12.40
2019-05-18T03:14:32.242Z,11.60
2019-05-18T03:15:18.751Z,11.30
2019-05-18T03:16:05.137Z,11.93
2019-05-18T03:16:51.587Z,12.63
2019-05-18T03:17:37.551Z,11.83
2019-05-18T03:18:23.727Z,12.13
2019-05-18T03:19:09.745Z,10.98
2019-05-18T03:19:56.396Z,11.17
2019-05-18T03:20:42.669Z,11.67
2019-05-18T03:21:29.386Z,11.67
2019-05-18T03:22:16.016Z,11.85
2019-05-18T03:23:02.688Z,11.77
2019-05-18T03:23:49.055Z,11.30
2019-05-18T03:24:36.881Z,11.23
2019-05-18T03:25:23.400Z,12.53
2019-05-18T03:26:09.791Z,12.00
2019-05-18T03:26:55.949Z,12.25
2019-05-18T03:27:41.924Z,11.30
2019-05-18T03:28:28.503Z,11.10
2019-05-18T03:29:14.418Z,12.77
2019-05-18T03:30:00.416Z,12.85
2019-05-18T03:30:46.709Z,11.80
2019-05-18T03:31:32.641Z,12.28
2019-05-18T03:32:18.609Z,12.67
2019-05-18T03:33:04.933Z,12.40
2019-05-18T03:33:50.933Z,12.93
2019-05-18T03:34:37.299Z,12.67
2019-05-18T03:35:24.266Z,15.63
2019-05-18T03:36:10.866Z,11.88
2019-05-18T03:36:57.269Z,12.90
2019-05-18T03:37:43.505Z,11.55
2019-05-18T03:38:29.973Z,13.72
2019-05-18T03:39:16.482Z,13.30
2019-05-18T03:40:02.745Z,12.50
2019-05-18T03:40:48.372Z,14.37
2019-05-18T03:41:34.702Z,13.30
2019-05-18T03:42:20.837Z,14.35
2019-05-18T03:43:07.067Z,13.60
2019-05-18T03:43:52.926Z,13.20
2019-05-18T03:44:38.644Z,13.50
2019-05-18T03:45:24.362Z,12.43
2019-05-18T03:46:10.561Z,13.10
2019-05-18T03:46:56.717Z,13.20
2019-05-18T03:47:42.975Z,13.85
2019-05-18T03:48:28.657Z,11.95
2019-05-18T03:49:26.070Z,13.00
2019-05-18T03:50:01.981Z,14.87
2019-05-18T03:50:47.726Z,13.78
2019-05-18T03:51:33.835Z,12.03
2019-05-18T03:52:19.496Z,13.87
2019-05-18T03:53:05.732Z,13.05
2019-05-18T03:53:52.095Z,12.93
2019-05-18T03:54:38.292Z,13.38
2019-05-18T03:55:24.858Z,12.82
2019-05-18T03:56:10.928Z,13.80
2019-05-18T03:56:57.347Z,15.27
2019-05-18T03:57:44.780Z,13.38
2019-05-18T03:58:31.414Z,14.28
2019-05-18T03:59:18.019Z,15.63
2019-05-18T04:00:04.924Z,13.93
2019-05-18T04:00:51.052Z,14.25
2019-05-18T04:01:36.872Z,14.03
2019-05-18T04:02:22.633Z,13.80
2019-05-18T04:03:08.454Z,13.90
2019-05-18T04:03:54.776Z,14.43
2019-05-18T04:04:40.622Z,16.70
2019-05-18T04:05:27.429Z,13.03
2019-05-18T04:06:13.724Z,13.13
2019-05-18T04:06:59.663Z,14.93
2019-05-18T04:07:45.967Z,14.70
2019-05-18T04:08:32.264Z,14.70
2019-05-18T04:09:18.766Z,15.28
2019-05-18T04:10:05.555Z,13.07
2019-05-18T04:10:51.527Z,11.93
2019-05-18T04:11:37.869Z,12.87
2019-05-18T04:12:23.899Z,13.20
2019-05-18T04:13:09.707Z,12.33
2019-05-18T04:13:56.128Z,13.60
2019-05-18T04:14:42.416Z,14.13
2019-05-18T04:15:28.855Z,12.82
2019-05-18T04:16:14.988Z,13.00
2019-05-18T04:17:01.431Z,12.85
2019-05-18T04:17:47.980Z,12.82
2019-05-18T04:18:34.306Z,11.93
2019-05-18T04:19:20.882Z,12.70
2019-05-18T04:20:09.151Z,12.65
2019-05-18T04:20:55.505Z,11.80
2019-05-18T04:21:42.108Z,12.37
2019-05-18T04:22:28.028Z,11.95
2019-05-18T04:23:17.440Z,12.28
2019-05-18T04:24:03.368Z,13.20
2019-05-18T04:24:49.811Z,12.93
2019-05-18T04:25:35.826Z,12.20
2019-05-18T04:26:21.983Z,13.17
2019-05-18T04:27:08.678Z,11.97
2019-05-18T04:27:54.802Z,12.17
2019-05-18T04:28:41.289Z,14.40
2019-05-18T04:29:27.417Z,12.80
2019-05-18T04:30:14.453Z,14.43
2019-05-18T04:31:00.702Z,13.17
2019-05-18T04:31:46.843Z,13.60
2019-05-18T04:32:33.436Z,13.40
2019-05-18T04:33:20.268Z,12.47
2019-05-18T04:34:06.649Z,12.20
2019-05-18T04:34:53.107Z,11.53
2019-05-18T04:35:39.586Z,11.83
2019-05-18T04:36:25.508Z,12.37
2019-05-18T04:37:12.080Z,12.57
2019-05-18T04:37:58.440Z,12.80
2019-05-18T04:38:44.833Z,14.83
2019-05-18T04:39:34.831Z,13.43
2019-05-18T04:40:21.234Z,12.47
2019-05-18T04:41:07.488Z,11.67
2019-05-18T04:41:53.453Z,13.27
2019-05-18T04:42:39.394Z,12.67
2019-05-18T04:43:25.414Z,11.90
2019-05-18T04:44:11.739Z,12.50
2019-05-18T04:44:58.124Z,12.33
2019-05-18T04:45:44.159Z,12.40
2019-05-18T04:46:30.503Z,12.60
2019-05-18T04:47:16.957Z,11.97
2019-05-18T04:48:03.016Z,12.17
2019-05-18T04:48:49.576Z,12.63
2019-05-18T04:49:35.985Z,12.10
2019-05-18T04:50:22.420Z,12.00
2019-05-18T04:51:08.851Z,13.83
2019-05-18T04:51:55.139Z,13.87
2019-05-18T04:52:41.588Z,12.67
2019-05-18T04:53:27.611Z,13.23
2019-05-18T04:54:15.153Z,12.10
2019-05-18T04:55:01.407Z,14.50
2019-05-18T04:55:47.558Z,14.40
2019-05-18T04:56:33.883Z,13.07
2019-05-18T04:57:19.921Z,13.75
2019-05-18T04:58:09.104Z,13.93
2019-05-18T04:58:58.232Z,13.30
2019-05-18T04:59:44.777Z,17.60
2019-05-18T05:00:31.268Z,13.53
2019-05-18T05:01:17.672Z,14.00
2019-05-18T05:02:03.985Z,13.30
2019-05-18T05:02:49.901Z,13.50
2019-05-18T05:03:35.828Z,14.37
2019-05-18T05:04:21.851Z,12.73
2019-05-18T05:05:08.313Z,13.73
2019-05-18T05:05:54.813Z,14.00
2019-05-18T05:06:41.323Z,13.03
2019-05-18T05:07:27.951Z,12.67
2019-05-18T05:08:14.267Z,12.93
2019-05-18T05:09:00.645Z,14.20
2019-05-18T05:09:47.040Z,14.57
2019-05-18T05:10:33.456Z,12.87
2019-05-18T05:11:19.674Z,12.63
2019-05-18T05:12:05.311Z,13.83
2019-05-18T05:12:50.896Z,13.23
2019-05-18T05:13:37.165Z,14.03
2019-05-18T05:14:22.803Z,13.03
2019-05-18T05:15:09.000Z,12.63
2019-05-18T05:15:54.723Z,13.00
2019-05-18T05:16:40.628Z,12.70
2019-05-18T05:17:28.747Z,13.57
2019-05-18T05:18:14.953Z,14.13
2019-05-18T05:19:00.950Z,14.13
2019-05-18T05:19:47.495Z,13.40
2019-05-18T05:20:33.998Z,13.40
2019-05-18T05:21:20.554Z,13.57
2019-05-18T05:22:08.809Z,13.03
2019-05-18T05:22:55.057Z,13.20
2019-05-18T05:23:41.143Z,14.47
2019-05-18T05:24:27.398Z,15.00
2019-05-18T05:25:13.463Z,13.17
2019-05-18T05:25:59.558Z,13.30
2019-05-18T05:26:45.946Z,13.70
2019-05-18T05:27:32.179Z,13.93
2019-05-18T05:28:18.782Z,13.90
2019-05-18T05:29:04.963Z,14.13
2019-05-18T05:29:51.436Z,14.30
2019-05-18T05:30:38.064Z,12.33
2019-05-18T05:31:24.161Z,14.90
2019-05-18T05:32:10.333Z,12.53
2019-05-18T05:32:57.751Z,13.30
2019-05-18T05:33:47.285Z,15.43
2019-05-18T05:34:33.494Z,13.37
2019-05-18T05:35:19.889Z,13.47
2019-05-18T05:36:06.526Z,12.90
2019-05-18T05:36:53.292Z,13.03
2019-05-18T05:37:39.669Z,12.87
2019-05-18T05:38:25.780Z,13.23
2019-05-18T05:39:12.192Z,12.10
2019-05-18T05:39:58.121Z,12.93
2019-05-18T05:40:44.475Z,13.80
2019-05-18T05:41:30.695Z,12.43
2019-05-18T05:42:16.892Z,12.70
2019-05-18T05:43:05.788Z,12.23
2019-05-18T05:43:51.715Z,13.27
2019-05-18T05:44:38.180Z,12.33
2019-05-18T05:45:27.210Z,12.40
2019-05-18T05:46:14.139Z,11.57
2019-05-18T05:47:00.605Z,11.90
2019-05-18T05:47:46.557Z,11.37
2019-05-18T05:48:32.945Z,12.20
2019-05-18T05:49:19.451Z,11.87
2019-05-18T05:50:06.407Z,11.10
2019-05-18T05:50:52.667Z,11.40
2019-05-18T05:51:39.089Z,11.87
2019-05-18T05:52:26.592Z,11.60
2019-05-18T05:53:13.123Z,11.73
2019-05-18T05:53:59.278Z,10.70
2019-05-18T05:54:48.468Z,11.33
2019-05-18T05:55:37.735Z,10.93
2019-05-18T05:56:24.247Z,12.53
2019-05-18T05:57:10.332Z,11.90
2019-05-18T05:57:56.731Z,16.03
2019-05-18T05:58:43.159Z,12.13
2019-05-18T05:59:29.581Z,12.10
2019-05-18T06:00:16.828Z,12.10
2019-05-18T06:01:03.058Z,11.50
2019-05-18T06:01:48.943Z,12.47
2019-05-18T06:02:35.954Z,11.10
2019-05-18T06:03:22.635Z,12.37
2019-05-18T06:04:08.966Z,12.17
2019-05-18T06:04:55.546Z,12.37
2019-05-18T06:05:43.019Z,12.17
2019-05-18T06:06:29.311Z,12.27
2019-05-18T06:07:16.850Z,11.73
2019-05-18T06:08:03.289Z,11.83
2019-05-18T06:08:49.511Z,11.50
2019-05-18T06:09:37.203Z,11.93
2019-05-18T06:10:23.841Z,12.17
2019-05-18T06:11:10.683Z,10.97
2019-05-18T06:12:00.183Z,10.60
2019-05-18T06:12:48.180Z,10.93
2019-05-18T06:13:34.284Z,11.53
2019-05-18T06:14:20.067Z,10.63
2019-05-18T06:15:06.903Z,9.90
2019-05-18T06:15:52.878Z,9.87
2019-05-18T06:16:38.849Z,11.17
2019-05-18T06:17:25.387Z,10.80
2019-05-18T06:18:11.655Z,9.93
2019-05-18T06:18:59.150Z,11.93
2019-05-18T06:19:47.583Z,10.37
2019-05-18T06:20:33.848Z,10.80
2019-05-18T06:21:21.401Z,11.57
2019-05-18T06:22:07.663Z,9.90
2019-05-18T06:22:53.760Z,10.47
2019-05-18T06:23:39.616Z,10.40
2019-05-18T06:24:25.279Z,9.63
2019-05-18T06:25:11.061Z,10.53
2019-05-18T06:25:57.189Z,10.80
2019-05-18T06:26:42.940Z,10.47
2019-05-18T06:27:29.195Z,11.10
2019-05-18T06:28:15.539Z,11.10
2019-05-18T06:29:01.717Z,10.77
2019-05-18T06:29:47.812Z,11.07
2019-05-18T06:30:37.056Z,10.47
2019-05-18T06:31:23.455Z,10.20
2019-05-18T06:32:10.237Z,9.87
2019-05-18T06:32:56.443Z,13.40
2019-05-18T06:33:42.488Z,10.57
2019-05-18T06:34:28.548Z,10.80
2019-05-18T06:35:15.406Z,10.07
2019-05-18T06:36:01.736Z,11.23
2019-05-18T06:36:48.504Z,9.50
2019-05-18T06:37:35.460Z,9.70
2019-05-18T06:38:24.712Z,10.00
2019-05-18T06:39:11.012Z,9.97
2019-05-18T06:39:57.096Z,10.63
2019-05-18T06:40:43.832Z,11.03
2019-05-18T06:41:30.280Z,9.97
2019-05-18T06:42:16.839Z,10.23
2019-05-18T06:43:03.233Z,9.70
2019-05-18T06:43:49.380Z,10.40
2019-05-18T06:44:35.204Z,9.60
2019-05-18T06:45:21.066Z,10.10
2019-05-18T06:46:06.764Z,10.13
2019-05-18T06:46:52.410Z,9.17
2019-05-18T06:47:38.630Z,9.87
2019-05-18T06:48:27.571Z,9.03
2019-05-18T06:49:13.784Z,9.90
2019-05-18T06:50:06.093Z,9.67
2019-05-18T06:51:06.360Z,9.53
2019-05-18T06:51:40.849Z,9.70
2019-05-18T06:52:27.284Z,10.07
2019-05-18T06:53:13.663Z,10.33
2019-05-18T06:54:00.115Z,11.20
2019-05-18T06:54:47.655Z,9.73
2019-05-18T06:55:34.138Z,10.63
2019-05-18T06:56:23.101Z,10.40
2019-05-18T06:57:09.958Z,9.17
2019-05-18T06:57:56.859Z,9.87
2019-05-18T06:58:43.668Z,9.83
2019-05-18T06:59:30.677Z,9.97
2019-05-18T07:00:16.958Z,10.27
2019-05-18T07:01:02.933Z,10.30
2019-05-18T07:01:49.145Z,10.10
2019-05-18T07:02:34.924Z,9.87
2019-05-18T07:03:21.502Z,9.60
2019-05-18T07:04:07.661Z,9.80
2019-05-18T07:04:53.963Z,9.67
2019-05-18T07:05:40.387Z,9.50
2019-05-18T07:06:26.504Z,9.20
2019-05-18T07:07:12.149Z,9.40
2019-05-18T07:07:57.835Z,9.67
2019-05-18T07:08:46.692Z,9.80
2019-05-18T07:09:32.803Z,9.90
2019-05-18T07:10:18.496Z,9.53
2019-05-18T07:11:04.742Z,10.07
2019-05-18T07:11:50.851Z,9.87
2019-05-18T07:12:37.003Z,9.17
2019-05-18T07:13:22.682Z,9.23
2019-05-18T07:14:08.948Z,9.70
2019-05-18T07:14:55.541Z,9.57
2019-05-18T07:15:41.778Z,8.77
2019-05-18T07:16:27.976Z,8.77
2019-05-18T07:17:14.191Z,9.00
2019-05-18T07:18:00.457Z,9.40
2019-05-18T07:18:46.210Z,8.93
2019-05-18T07:19:32.630Z,9.10
2019-05-18T07:20:19.127Z,9.47
2019-05-18T07:21:05.133Z,12.47
2019-05-18T07:21:51.006Z,10.37
2019-05-18T07:22:37.342Z,9.23
2019-05-18T07:23:27.959Z,9.28
2019-05-18T07:24:17.346Z,9.43
2019-05-18T07:25:03.714Z,9.87
2019-05-18T07:25:50.083Z,9.67
2019-05-18T07:26:36.747Z,11.07
2019-05-18T07:27:22.889Z,9.75
2019-05-18T07:28:09.287Z,9.20
2019-05-18T07:28:55.305Z,9.85
2019-05-18T07:29:41.732Z,9.93
2019-05-18T07:30:31.804Z,9.83
2019-05-18T07:31:17.791Z,9.20
2019-05-18T07:32:04.142Z,9.30
2019-05-18T07:32:50.155Z,9.53
2019-05-18T07:33:36.157Z,9.33
2019-05-18T07:34:26.272Z,8.93
2019-05-18T07:35:11.510Z,9.58
2019-05-18T07:36:05.109Z,10.07
2019-05-18T07:36:51.811Z,9.48
2019-05-18T07:37:41.156Z,9.68
2019-05-18T07:38:31.374Z,10.53
2019-05-18T07:39:17.841Z,10.13
2019-05-18T07:40:06.439Z,9.73
2019-05-18T07:40:52.547Z,9.63
2019-05-18T07:41:46.317Z,9.93
2019-05-18T07:42:26.589Z,9.33
2019-05-18T07:43:12.499Z,9.33
2019-05-18T07:43:58.557Z,8.90
2019-05-18T07:44:44.405Z,8.90
2019-05-18T07:45:30.639Z,9.45
2019-05-18T07:46:16.579Z,10.13
2019-05-18T07:47:02.495Z,11.78
2019-05-18T07:47:50.828Z,11.33
2019-05-18T07:48:37.231Z,10.15
2019-05-18T07:49:26.637Z,9.50
2019-05-18T07:50:13.238Z,9.83
2019-05-18T07:50:59.527Z,10.15
2019-05-18T07:51:46.084Z,10.55
2019-05-18T07:52:32.778Z,10.40
2019-05-18T07:53:19.109Z,10.35
2019-05-18T07:54:05.390Z,9.70
2019-05-18T07:54:51.340Z,11.00
2019-05-18T07:55:39.176Z,10.88
2019-05-18T07:56:25.391Z,11.35
2019-05-18T07:57:11.079Z,10.68
2019-05-18T07:57:57.559Z,10.67
2019-05-18T07:58:43.299Z,10.65
2019-05-18T07:59:29.396Z,10.78
2019-05-18T08:00:15.201Z,10.15
2019-05-18T08:01:01.321Z,9.13
2019-05-18T08:01:47.548Z,10.25
2019-05-18T08:02:33.687Z,9.88
2019-05-18T08:03:19.782Z,10.45
2019-05-18T08:04:06.772Z,9.30
2019-05-18T08:04:55.782Z,10.28
2019-05-18T08:05:41.772Z,9.95
2019-05-18T08:06:28.644Z,9.80
2019-05-18T08:07:14.808Z,10.32
2019-05-18T08:08:03.597Z,11.22
2019-05-18T08:08:49.412Z,10.93
2019-05-18T08:09:35.539Z,10.48
2019-05-18T08:10:33.809Z,10.25
2019-05-18T08:11:19.689Z,10.18
2019-05-18T08:12:06.183Z,9.70
2019-05-18T08:12:52.133Z,10.60
2019-05-18T08:13:38.431Z,10.80
2019-05-18T08:14:24.411Z,10.30
2019-05-18T08:15:10.610Z,9.60
2019-05-18T08:15:56.898Z,9.38
2019-05-18T08:16:43.018Z,9.98
2019-05-18T08:17:29.116Z,9.38
2019-05-18T08:18:14.843Z,10.98
2019-05-18T08:19:01.075Z,9.58
2019-05-18T08:19:47.160Z,9.28
2019-05-18T08:20:33.263Z,9.10
2019-05-18T08:21:19.477Z,9.55
2019-05-18T08:22:05.196Z,9.48
2019-05-18T08:22:51.475Z,9.45
2019-05-18T08:23:37.611Z,9.40
2019-05-18T08:24:23.353Z,10.65
2019-05-18T08:25:09.623Z,9.98
2019-05-18T08:25:55.843Z,9.63
2019-05-18T08:26:41.650Z,9.08
2019-05-18T08:27:27.950Z,9.45
2019-05-18T08:28:14.211Z,9.78
2019-05-18T08:29:00.529Z,9.93
2019-05-18T08:29:46.786Z,8.55
2019-05-18T08:30:32.499Z,9.13
2019-05-18T08:31:18.163Z,9.53
2019-05-18T08:32:03.834Z,9.63
2019-05-18T08:32:49.564Z,9.58
2019-05-18T08:33:35.298Z,9.63
2019-05-18T08:34:21.427Z,10.05
2019-05-18T08:35:07.665Z,8.60
2019-05-18T08:35:56.288Z,9.68
2019-05-18T08:36:41.972Z,9.05
2019-05-18T08:37:28.124Z,12.60
2019-05-18T08:38:13.759Z,11.33
2019-05-18T08:38:59.625Z,9.25
2019-05-18T08:39:45.787Z,9.83
2019-05-18T08:40:31.905Z,9.85
2019-05-18T08:41:18.812Z,9.05
2019-05-18T08:42:05.375Z,9.08
2019-05-18T08:42:51.832Z,9.98
2019-05-18T08:43:38.032Z,9.30
2019-05-18T08:44:24.203Z,8.98
2019-05-18T08:45:11.188Z,8.75
2019-05-18T08:45:57.686Z,9.15
2019-05-18T08:46:43.838Z,10.35
2019-05-18T08:47:30.484Z,9.28
2019-05-18T08:48:16.672Z,9.70
2019-05-18T08:49:03.174Z,9.28
2019-05-18T08:49:49.436Z,8.78
2019-05-18T08:50:35.730Z,10.35
2019-05-18T08:51:21.855Z,10.23
2019-05-18T08:52:08.819Z,10.28
2019-05-18T08:52:54.670Z,9.53
2019-05-18T08:53:40.335Z,9.70
2019-05-18T08:54:26.068Z,9.08
2019-05-18T08:55:13.390Z,9.70
2019-05-18T08:55:59.453Z,10.32
2019-05-18T08:56:45.486Z,10.03
2019-05-18T08:57:31.109Z,11.08
2019-05-18T08:58:17.275Z,10.55
2019-05-18T08:59:03.482Z,10.25
2019-05-18T08:59:49.653Z,11.25
2019-05-18T09:00:35.815Z,10.40
2019-05-18T09:01:21.969Z,11.00
2019-05-18T09:02:07.711Z,9.63
2019-05-18T09:02:53.470Z,13.48
2019-05-18T09:03:42.285Z,12.30
2019-05-18T09:04:28.056Z,10.58
2019-05-18T09:05:14.523Z,9.23
2019-05-18T09:06:00.693Z,10.32
2019-05-18T09:06:50.136Z,10.43
2019-05-18T09:07:36.151Z,10.45
2019-05-18T09:08:22.174Z,10.10
2019-05-18T09:09:07.947Z,9.95
2019-05-18T09:09:54.198Z,9.85
2019-05-18T09:10:40.507Z,10.72
2019-05-18T09:11:26.341Z,11.03
2019-05-18T09:12:12.056Z,11.03
2019-05-18T09:13:00.879Z,11.15
2019-05-18T09:13:47.269Z,10.98
2019-05-18T09:14:33.476Z,11.25
2019-05-18T09:15:19.312Z,11.45
2019-05-18T09:16:05.268Z,10.50
2019-05-18T09:16:51.335Z,11.00
2019-05-18T09:17:37.003Z,11.10
2019-05-18T09:18:27.078Z,11.95
2019-05-18T09:19:12.936Z,11.45
2019-05-18T09:19:59.098Z,11.43
2019-05-18T09:20:44.815Z,10.78
2019-05-18T09:21:33.575Z,12.13
2019-05-18T09:22:23.170Z,10.65
2019-05-18T09:23:07.245Z,10.20
2019-05-18T09:23:53.430Z,9.73
2019-05-18T09:24:39.504Z,9.70
2019-05-18T09:25:25.173Z,10.50
2019-05-18T09:26:10.875Z,10.85
2019-05-18T09:26:57.079Z,13.10
2019-05-18T09:27:43.274Z,11.12
2019-05-18T09:28:29.471Z,10.90
2019-05-18T09:29:15.612Z,10.15
2019-05-18T09:30:01.383Z,10.53
2019-05-18T09:30:47.595Z,13.72
2019-05-18T09:31:33.718Z,9.60
2019-05-18T09:32:20.053Z,9.88
2019-05-18T09:33:06.136Z,10.82
2019-05-18T09:33:52.495Z,10.75
2019-05-18T09:34:38.835Z,11.30
2019-05-18T09:35:25.102Z,10.28
2019-05-18T09:36:10.879Z,9.93
2019-05-18T09:36:56.668Z,11.22
2019-05-18T09:37:42.787Z,10.72
2019-05-18T09:38:28.665Z,12.40
2019-05-18T09:39:14.601Z,11.55
2019-05-18T09:40:00.392Z,10.72
2019-05-18T09:40:46.482Z,11.97
2019-05-18T09:41:32.577Z,10.53
2019-05-18T09:42:18.470Z,11.00
2019-05-18T09:43:04.396Z,11.28
2019-05-18T09:43:50.718Z,11.80
2019-05-18T09:44:36.834Z,11.68
2019-05-18T09:45:22.638Z,11.73
2019-05-18T09:46:08.782Z,12.37
2019-05-18T09:46:54.982Z,12.28
2019-05-18T09:47:41.074Z,13.35
2019-05-18T09:48:26.827Z,16.65
2019-05-18T09:49:12.575Z,12.80
2019-05-18T09:49:58.471Z,11.63
2019-05-18T09:50:44.584Z,12.55
2019-05-18T09:51:33.235Z,12.30
2019-05-18T09:52:19.687Z,11.40
2019-05-18T09:53:05.886Z,24.98
2019-05-18T09:53:52.191Z,11.15
2019-05-18T09:54:38.451Z,9.65
2019-05-18T09:55:24.754Z,11.83
2019-05-18T09:56:11.044Z,12.07
2019-05-18T09:56:57.455Z,15.43
2019-05-18T09:57:43.343Z,12.73
2019-05-18T09:58:29.131Z,11.08
2019-05-18T09:59:15.086Z,10.43
2019-05-18T10:00:01.334Z,12.30
2019-05-18T10:00:47.697Z,13.18
2019-05-18T10:01:37.630Z,12.25
2019-05-18T10:02:23.918Z,11.25
2019-05-18T10:03:10.252Z,12.58
2019-05-18T10:03:56.883Z,12.58
2019-05-18T10:04:44.121Z,12.63
2019-05-18T10:05:30.583Z,12.70
2019-05-18T10:06:16.737Z,12.47
2019-05-18T10:07:03.458Z,12.73
2019-05-18T10:07:49.554Z,12.35
2019-05-18T10:08:35.512Z,11.73
2019-05-18T10:09:21.207Z,10.65
2019-05-18T10:10:07.840Z,10.00
2019-05-18T10:10:53.640Z,10.88
2019-05-18T10:11:39.431Z,10.15
2019-05-18T10:12:25.529Z,10.75
2019-05-18T10:13:11.259Z,10.15